sensor_id;sensor_type;location;lat;lon;timestamp;pressure;altitude;pressure_sealevel;temperature;humidity
27429;BME280;14881;48.092;11.574;2023-03-01T00:02:24;95964.16;;;0.58;100.00
27429;BME280;14881;48.092;11.574;2023-03-01T00:04:52;95963.34;;;0.57;100.00
27429;BME280;14881;48.092;11.574;2023-03-01T00:07:20;95962.28;;;0.58;100.00
27429;BME280;14881;48.092;11.574;2023-03-01T00:09:49;95955.31;;;0.57;100.00
27429;BME280;14881;48.092;11.574;2023-03-01T00:12:17;95958.38;;;0.61;100.00
27429;BME280;14881;48.092;11.574;2023-03-01T00:14:44;95953.06;;;0.54;100.00
27429;BME280;14881;48.092;11.574;2023-03-01T00:17:12;95958.03;;;0.51;100.00
27429;BME280;14881;48.092;11.574;2023-03-01T00:19:40;95961.47;;;0.58;100.00
27429;BME280;14881;48.092;11.574;2023-03-01T00:22:08;95954.25;;;0.65;100.00
27429;BME280;14881;48.092;11.574;2023-03-01T00:24:36;95951.16;;;0.68;100.00
27429;BME280;14881;48.092;11.574;2023-03-01T00:27:05;95953.63;;;0.63;100.00
27429;BME280;14881;48.092;11.574;2023-03-01T00:29:33;95953.03;;;0.61;100.00
27429;BME280;14881;48.092;11.574;2023-03-01T00:32:01;95954.50;;;0.57;100.00
27429;BME280;14881;48.092;11.574;2023-03-01T00:34:29;95948.72;;;0.60;100.00
27429;BME280;14881;48.092;11.574;2023-03-01T00:36:56;95949.75;;;0.59;100.00
27429;BME280;14881;48.092;11.574;2023-03-01T00:39:31;95942.59;;;0.53;100.00
27429;BME280;14881;48.092;11.574;2023-03-01T00:41:59;95947.94;;;0.53;100.00
27429;BME280;14881;48.092;11.574;2023-03-01T00:44:29;95945.50;;;0.51;100.00
27429;BME280;14881;48.092;11.574;2023-03-01T00:46:56;95945.72;;;0.50;100.00
27429;BME280;14881;48.092;11.574;2023-03-01T00:49:24;95931.69;;;0.54;100.00
27429;BME280;14881;48.092;11.574;2023-03-01T00:51:54;95929.47;;;0.51;100.00
27429;BME280;14881;48.092;11.574;2023-03-01T00:54:21;95934.34;;;0.54;100.00
27429;BME280;14881;48.092;11.574;2023-03-01T00:56:49;95934.56;;;0.53;100.00
27429;BME280;14881;48.092;11.574;2023-03-01T00:59:17;95932.13;;;0.51;100.00
27429;BME280;14881;48.092;11.574;2023-03-01T01:01:46;95926.34;;;0.54;100.00
27429;BME280;14881;48.092;11.574;2023-03-01T01:04:14;95918.16;;;0.49;100.00
27429;BME280;14881;48.092;11.574;2023-03-01T01:06:44;95920.63;;;0.51;100.00
27429;BME280;14881;48.092;11.574;2023-03-01T01:09:14;95917.97;;;0.51;100.00
27429;BME280;14881;48.092;11.574;2023-03-01T01:11:45;95918.16;;;0.49;100.00
27429;BME280;14881;48.092;11.574;2023-03-01T01:14:13;95913.03;;;0.48;100.00
27429;BME280;14881;48.092;11.574;2023-03-01T01:16:42;95912.22;;;0.47;100.00
27429;BME280;14881;48.092;11.574;2023-03-01T01:19:11;95901.75;;;0.46;100.00
27429;BME280;14881;48.092;11.574;2023-03-01T01:21:40;95895.38;;;0.47;100.00
27429;BME280;14881;48.092;11.574;2023-03-01T01:24:09;95893.50;;;0.47;100.00
27429;BME280;14881;48.092;11.574;2023-03-01T01:26:37;95900.53;;;0.42;100.00
27429;BME280;14881;48.092;11.574;2023-03-01T01:29:05;95896.78;;;0.49;100.00
27429;BME280;14881;48.092;11.574;2023-03-01T01:31:35;95901.31;;;0.49;100.00
27429;BME280;14881;48.092;11.574;2023-03-01T01:34:05;95887.97;;;0.49;100.00
27429;BME280;14881;48.092;11.574;2023-03-01T01:36:35;95889.81;;;0.48;100.00
27429;BME280;14881;48.092;11.574;2023-03-01T01:39:04;95890.19;;;0.52;100.00
27429;BME280;14881;48.092;11.574;2023-03-01T01:41:31;95883.22;;;0.51;100.00
27429;BME280;14881;48.092;11.574;2023-03-01T01:44:18;95882.94;;;0.59;100.00
27429;BME280;14881;48.092;11.574;2023-03-01T01:46:53;95875.84;;;0.46;100.00
27429;BME280;14881;48.092;11.574;2023-03-01T01:49:28;95867.66;;;0.41;100.00
27429;BME280;14881;48.092;11.574;2023-03-01T01:52:03;95869.09;;;0.37;100.00
27429;BME280;14881;48.092;11.574;2023-03-01T01:54:38;95870.75;;;0.38;100.00
27429;BME280;14881;48.092;11.574;2023-03-01T01:57:12;95864.59;;;0.38;100.00
27429;BME280;14881;48.092;11.574;2023-03-01T01:59:44;95866.78;;;0.47;100.00
27429;BME280;14881;48.092;11.574;2023-03-01T02:02:13;95862.91;;;0.43;100.00
27429;BME280;14881;48.092;11.574;2023-03-01T02:04:41;95860.44;;;0.42;100.00
27429;BME280;14881;48.092;11.574;2023-03-01T02:07:15;95856.75;;;0.43;100.00
27429;BME280;14881;48.092;11.574;2023-03-01T02:09:46;95856.13;;;0.41;100.00
27429;BME280;14881;48.092;11.574;2023-03-01T02:12:15;95852.66;;;0.40;100.00
27429;BME280;14881;48.092;11.574;2023-03-01T02:14:44;95859.03;;;0.39;100.00
27429;BME280;14881;48.092;11.574;2023-03-01T02:17:14;95854.34;;;0.34;100.00
27429;BME280;14881;48.092;11.574;2023-03-01T02:19:52;95844.03;;;0.38;100.00
27429;BME280;14881;48.092;11.574;2023-03-01T02:22:25;95847.72;;;0.37;100.00
27429;BME280;14881;48.092;11.574;2023-03-01T02:25:03;95852.47;;;0.35;100.00
27429;BME280;14881;48.092;11.574;2023-03-01T02:27:40;95844.03;;;0.38;100.00
27429;BME280;14881;48.092;11.574;2023-03-01T02:30:12;95849.00;;;0.34;100.00
27429;BME280;14881;48.092;11.574;2023-03-01T02:32:43;95849.16;;;0.40;100.00
27429;BME280;14881;48.092;11.574;2023-03-01T02:35:13;95845.28;;;0.35;100.00
27429;BME280;14881;48.092;11.574;2023-03-01T02:37:43;95842.03;;;0.33;100.00
27429;BME280;14881;48.092;11.574;2023-03-01T02:40:14;95842.25;;;0.32;100.00
27429;BME280;14881;48.092;11.574;2023-03-01T02:42:48;95838.09;;;0.36;100.00
27429;BME280;14881;48.092;11.574;2023-03-01T02:45:18;95843.88;;;0.33;100.00
27429;BME280;14881;48.092;11.574;2023-03-01T02:47:46;95837.13;;;0.30;100.00
27429;BME280;14881;48.092;11.574;2023-03-01T02:50:22;95841.22;;;0.33;100.00
27429;BME280;14881;48.092;11.574;2023-03-01T02:52:57;95842.66;;;0.29;100.00
27429;BME280;14881;48.092;11.574;2023-03-01T02:55:29;95841.03;;;0.28;100.00
27429;BME280;14881;48.092;11.574;2023-03-01T02:57:57;95837.34;;;0.29;100.00
27429;BME280;14881;48.092;11.574;2023-03-01T03:00:29;95833.84;;;0.28;100.00
27429;BME280;14881;48.092;11.574;2023-03-01T03:03:00;95833.06;;;0.21;100.00
27429;BME280;14881;48.092;11.574;2023-03-01T03:05:29;95836.53;;;0.22;100.00
27429;BME280;14881;48.092;11.574;2023-03-01T03:07:58;95827.72;;;0.21;100.00
27429;BME280;14881;48.092;11.574;2023-03-01T03:10:30;95835.50;;;0.23;100.00
27429;BME280;14881;48.092;11.574;2023-03-01T03:12:59;95841.69;;;0.23;100.00
27429;BME280;14881;48.092;11.574;2023-03-01T03:15:29;95837.53;;;0.27;100.00
27429;BME280;14881;48.092;11.574;2023-03-01T03:17:58;95843.13;;;0.19;100.00
27429;BME280;14881;48.092;11.574;2023-03-01T03:20:29;95844.41;;;0.17;100.00
27429;BME280;14881;48.092;11.574;2023-03-01T03:22:58;95838.81;;;0.18;100.00
27429;BME280;14881;48.092;11.574;2023-03-01T03:25:27;95836.16;;;0.18;100.00
27429;BME280;14881;48.092;11.574;2023-03-01T03:27:56;95834.16;;;0.14;100.00
27429;BME280;14881;48.092;11.574;2023-03-01T03:30:27;95825.09;;;0.15;100.00
27429;BME280;14881;48.092;11.574;2023-03-01T03:32:57;95834.09;;;0.20;100.00
27429;BME280;14881;48.092;11.574;2023-03-01T03:35:28;95831.47;;;0.14;100.00
27429;BME280;14881;48.092;11.574;2023-03-01T03:37:58;95829.25;;;0.11;100.00
27429;BME280;14881;48.092;11.574;2023-03-01T03:40:35;95820.41;;;0.10;100.00
27429;BME280;14881;48.092;11.574;2023-03-01T03:43:05;95831.53;;;0.07;100.00
27429;BME280;14881;48.092;11.574;2023-03-01T03:45:35;95828.00;;;0.13;100.00
27429;BME280;14881;48.092;11.574;2023-03-01T03:48:07;95824.94;;;0.10;100.00
27429;BME280;14881;48.092;11.574;2023-03-01T03:50:37;95825.16;;;0.08;100.00
27429;BME280;14881;48.092;11.574;2023-03-01T03:53:07;95816.72;;;0.11;100.00
27429;BME280;14881;48.092;11.574;2023-03-01T03:55:35;95816.13;;;0.03;100.00
27429;BME280;14881;48.092;11.574;2023-03-01T03:58:07;95816.13;;;0.03;100.00
27429;BME280;14881;48.092;11.574;2023-03-01T04:00:41;95812.81;;;0.07;100.00
27429;BME280;14881;48.092;11.574;2023-03-01T04:03:11;95802.84;;;-0.04;100.00
27429;BME280;14881;48.092;11.574;2023-03-01T04:05:40;95801.81;;;-0.03;100.00
27429;BME280;14881;48.092;11.574;2023-03-01T04:08:08;95810.03;;;-0.05;100.00
27429;BME280;14881;48.092;11.574;2023-03-01T04:10:38;95807.41;;;-0.11;100.00
27429;BME280;14881;48.092;11.574;2023-03-01T04:13:09;95806.97;;;-0.08;100.00
27429;BME280;14881;48.092;11.574;2023-03-01T04:15:40;95804.50;;;-0.03;100.00
27429;BME280;14881;48.092;11.574;2023-03-01T04:18:12;95808.78;;;-0.02;100.00
27429;BME280;14881;48.092;11.574;2023-03-01T04:20:40;95807.38;;;-0.05;100.00
27429;BME280;14881;48.092;11.574;2023-03-01T04:23:12;95807.16;;;-0.03;100.00
27429;BME280;14881;48.092;11.574;2023-03-01T04:25:45;95807.16;;;-0.03;100.00
27429;BME280;14881;48.092;11.574;2023-03-01T04:28:15;95802.25;;;-0.06;100.00
27429;BME280;14881;48.092;11.574;2023-03-01T04:30:43;95785.84;;;-0.10;100.00
27429;BME280;14881;48.092;11.574;2023-03-01T04:33:13;95795.31;;;-0.14;100.00
27429;BME280;14881;48.092;11.574;2023-03-01T04:35:40;95802.88;;;-0.11;100.00
27429;BME280;14881;48.092;11.574;2023-03-01T04:38:08;95799.41;;;-0.11;100.00
27429;BME280;14881;48.092;11.574;2023-03-01T04:40:37;95795.69;;;-0.10;100.00
27429;BME280;14881;48.092;11.574;2023-03-01T04:43:05;95797.56;;;-0.17;100.00
27429;BME280;14881;48.092;11.574;2023-03-01T04:45:33;95787.72;;;-0.17;100.00
27429;BME280;14881;48.092;11.574;2023-03-01T04:48:02;95792.28;;;-0.24;100.00
27429;BME280;14881;48.092;11.574;2023-03-01T04:50:32;95795.38;;;-0.20;100.00
27429;BME280;14881;48.092;11.574;2023-03-01T04:53:00;95787.59;;;-0.28;100.00
27429;BME280;14881;48.092;11.574;2023-03-01T04:55:28;95786.97;;;-0.24;100.00
27429;BME280;14881;48.092;11.574;2023-03-01T04:57:56;95786.97;;;-0.24;100.00
27429;BME280;14881;48.092;11.574;2023-03-01T05:00:24;95783.50;;;-0.31;100.00
27429;BME280;14881;48.092;11.574;2023-03-01T05:02:54;95785.13;;;-0.30;100.00
27429;BME280;14881;48.092;11.574;2023-03-01T05:05:25;95785.78;;;-0.35;100.00
27429;BME280;14881;48.092;11.574;2023-03-01T05:07:58;95791.72;;;-0.32;100.00
27429;BME280;14881;48.092;11.574;2023-03-01T05:10:28;95792.75;;;-0.33;100.00
27429;BME280;14881;48.092;11.574;2023-03-01T05:12:56;95793.19;;;-0.37;100.00
27429;BME280;14881;48.092;11.574;2023-03-01T05:15:25;95794.22;;;-0.38;100.00
27429;BME280;14881;48.092;11.574;2023-03-01T05:17:55;95793.34;;;-0.31;100.00
27429;BME280;14881;48.092;11.574;2023-03-01T05:20:25;95781.50;;;-0.36;100.00
27429;BME280;14881;48.092;11.574;2023-03-01T05:22:55;95782.53;;;-0.37;100.00
27429;BME280;14881;48.092;11.574;2023-03-01T05:25:26;95776.91;;;-0.28;100.00
27429;BME280;14881;48.092;11.574;2023-03-01T05:27:59;95774.34;;;-0.42;100.00
27429;BME280;14881;48.092;11.574;2023-03-01T05:30:31;95773.31;;;-0.41;100.00
27429;BME280;14881;48.092;11.574;2023-03-01T05:32:59;95787.69;;;-0.42;100.00
27429;BME280;14881;48.092;11.574;2023-03-01T05:35:28;95776.59;;;-0.45;100.00
27429;BME280;14881;48.092;11.574;2023-03-01T05:37:59;95781.19;;;-0.52;100.00
27429;BME280;14881;48.092;11.574;2023-03-01T05:40:28;95783.03;;;-0.53;100.00
27429;BME280;14881;48.092;11.574;2023-03-01T05:42:56;95778.94;;;-0.55;100.00
27429;BME280;14881;48.092;11.574;2023-03-01T05:45:26;95776.06;;;-0.54;100.00
27429;BME280;14881;48.092;11.574;2023-03-01T05:47:54;95775.44;;;-0.56;100.00
27429;BME280;14881;48.092;11.574;2023-03-01T05:50:24;95774.03;;;-0.65;100.00
27429;BME280;14881;48.092;11.574;2023-03-01T05:52:58;95777.13;;;-0.68;100.00
27429;BME280;14881;48.092;11.574;2023-03-01T05:55:29;95768.56;;;-0.70;100.00
27429;BME280;14881;48.092;11.574;2023-03-01T05:57:58;95777.59;;;-0.71;100.00
27429;BME280;14881;48.092;11.574;2023-03-01T06:00:27;95781.44;;;-0.67;100.00
27429;BME280;14881;48.092;11.574;2023-03-01T06:02:57;95775.91;;;-0.65;100.00
27429;BME280;14881;48.092;11.574;2023-03-01T06:05:26;95784.09;;;-0.67;100.00
27429;BME280;14881;48.092;11.574;2023-03-01T06:07:54;95775.06;;;-0.66;100.00
27429;BME280;14881;48.092;11.574;2023-03-01T06:10:22;95783.06;;;-0.59;100.00
27429;BME280;14881;48.092;11.574;2023-03-01T06:12:51;95783.47;;;-0.62;100.00
27429;BME280;14881;48.092;11.574;2023-03-01T06:15:20;95791.28;;;-0.61;100.00
27429;BME280;14881;48.092;11.574;2023-03-01T06:17:48;95781.81;;;-0.57;100.00
27429;BME280;14881;48.092;11.574;2023-03-01T06:20:18;95786.75;;;-0.60;100.00
27429;BME280;14881;48.092;11.574;2023-03-01T06:22:47;95785.50;;;-0.58;100.00
27429;BME280;14881;48.092;11.574;2023-03-01T06:25:17;95791.41;;;-0.49;100.00
27429;BME280;14881;48.092;11.574;2023-03-01T06:27:46;95791.81;;;-0.46;100.00
27429;BME280;14881;48.092;11.574;2023-03-01T06:30:18;95785.22;;;-0.43;100.00
27429;BME280;14881;48.092;11.574;2023-03-01T06:32:46;95788.72;;;-0.43;100.00
27429;BME280;14881;48.092;11.574;2023-03-01T06:35:15;95798.44;;;-0.55;100.00
27429;BME280;14881;48.092;11.574;2023-03-01T06:37:44;95800.88;;;-0.53;100.00
27429;BME280;14881;48.092;11.574;2023-03-01T06:40:13;95791.81;;;-0.46;100.00
27429;BME280;14881;48.092;11.574;2023-03-01T06:42:43;95786.59;;;-0.34;100.00
27429;BME280;14881;48.092;11.574;2023-03-01T06:45:11;95792.81;;;-0.40;100.00
27429;BME280;14881;48.092;11.574;2023-03-01T06:47:40;95788.44;;;-0.35;100.00
27429;BME280;14881;48.092;11.574;2023-03-01T06:50:09;95790.91;;;-0.33;100.00
27429;BME280;14881;48.092;11.574;2023-03-01T06:52:37;95793.53;;;-0.26;100.00
27429;BME280;14881;48.092;11.574;2023-03-01T06:55:06;95787.16;;;-0.25;100.00
27429;BME280;14881;48.092;11.574;2023-03-01T06:57:34;95788.00;;;-0.25;100.00
27429;BME280;14881;48.092;11.574;2023-03-01T07:00:02;95788.53;;;-0.16;100.00
27429;BME280;14881;48.092;11.574;2023-03-01T07:02:30;95783.81;;;-0.14;100.00
27429;BME280;14881;48.092;11.574;2023-03-01T07:04:59;95795.06;;;-0.06;100.00
27429;BME280;14881;48.092;11.574;2023-03-01T07:07:27;95793.81;;;-0.03;100.00
27429;BME280;14881;48.092;11.574;2023-03-01T07:09:55;95794.03;;;-0.05;100.00
27429;BME280;14881;48.092;11.574;2023-03-01T07:12:23;95794.41;;;-0.01;100.00
27429;BME280;14881;48.092;11.574;2023-03-01T07:14:51;95786.84;;;-0.04;100.00
27429;BME280;14881;48.092;11.574;2023-03-01T07:17:18;95778.97;;;0.01;100.00
27429;BME280;14881;48.092;11.574;2023-03-01T07:19:46;95789.22;;;0.04;100.00
27429;BME280;14881;48.092;11.574;2023-03-01T07:22:15;95784.91;;;0.03;100.00
27429;BME280;14881;48.092;11.574;2023-03-01T07:24:43;95780.59;;;0.02;100.00
27429;BME280;14881;48.092;11.574;2023-03-01T07:27:11;95781.78;;;0.13;100.00
27429;BME280;14881;48.092;11.574;2023-03-01T07:29:39;95786.91;;;0.14;100.00
27429;BME280;14881;48.092;11.574;2023-03-01T07:32:06;95779.84;;;0.20;100.00
27429;BME280;14881;48.092;11.574;2023-03-01T07:34:34;95780.03;;;0.25;100.00
27429;BME280;14881;48.092;11.574;2023-03-01T07:37:04;95777.41;;;0.43;100.00
27429;BME280;14881;48.092;11.574;2023-03-01T07:39:33;95770.84;;;0.39;100.00
27429;BME280;14881;48.092;11.574;2023-03-01T07:42:01;95774.34;;;0.40;100.00
27429;BME280;14881;48.092;11.574;2023-03-01T07:44:28;95766.50;;;0.45;100.00
27429;BME280;14881;48.092;11.574;2023-03-01T07:46:56;95774.22;;;0.53;100.00
27429;BME280;14881;48.092;11.574;2023-03-01T07:49:24;95761.66;;;0.53;100.00
27429;BME280;14881;48.092;11.574;2023-03-01T07:51:53;95765.16;;;0.54;100.00
27429;BME280;14881;48.092;11.574;2023-03-01T07:54:21;95766.34;;;0.58;100.00
27429;BME280;14881;48.092;11.574;2023-03-01T07:56:51;95760.13;;;0.64;100.00
27429;BME280;14881;48.092;11.574;2023-03-01T07:59:18;95757.84;;;0.67;100.00
27429;BME280;14881;48.092;11.574;2023-03-01T08:01:46;95760.34;;;0.62;100.00
27429;BME280;14881;48.092;11.574;2023-03-01T08:04:14;95761.34;;;0.68;100.00
27429;BME280;14881;48.092;11.574;2023-03-01T08:06:42;95756.66;;;0.63;100.00
27429;BME280;14881;48.092;11.574;2023-03-01T08:09:09;95763.09;;;0.74;100.00
27429;BME280;14881;48.092;11.574;2023-03-01T08:11:37;95761.41;;;0.80;100.00
27429;BME280;14881;48.092;11.574;2023-03-01T08:14:07;95755.69;;;0.76;100.00
27429;BME280;14881;48.092;11.574;2023-03-01T08:16:34;95759.34;;;0.82;100.00
27429;BME280;14881;48.092;11.574;2023-03-01T08:19:05;95753.34;;;0.86;100.00
27429;BME280;14881;48.092;11.574;2023-03-01T08:21:33;95758.53;;;0.99;100.00
27429;BME280;14881;48.092;11.574;2023-03-01T08:24:02;95748.91;;;1.10;100.00
27429;BME280;14881;48.092;11.574;2023-03-01T08:26:30;95752.94;;;1.19;100.00
27429;BME280;14881;48.092;11.574;2023-03-01T08:29:00;95750.81;;;1.39;100.00
27429;BME280;14881;48.092;11.574;2023-03-01T08:31:31;95750.06;;;1.51;100.00
27429;BME280;14881;48.092;11.574;2023-03-01T08:34:04;95746.28;;;1.70;100.00
27429;BME280;14881;48.092;11.574;2023-03-01T08:36:33;95742.22;;;1.79;100.00
27429;BME280;14881;48.092;11.574;2023-03-01T08:39:03;95738.88;;;1.84;100.00
27429;BME280;14881;48.092;11.574;2023-03-01T08:41:31;95732.78;;;1.77;100.00
27429;BME280;14881;48.092;11.574;2023-03-01T08:43:59;95723.84;;;1.83;100.00
27429;BME280;14881;48.092;11.574;2023-03-01T08:46:28;95728.53;;;1.87;100.00
27429;BME280;14881;48.092;11.574;2023-03-01T08:49:03;95728.06;;;2.02;100.00
27429;BME280;14881;48.092;11.574;2023-03-01T08:51:31;95724.13;;;2.16;100.00
27429;BME280;14881;48.092;11.574;2023-03-01T08:54:03;95715.75;;;2.36;100.00
27429;BME280;14881;48.092;11.574;2023-03-01T08:56:31;95728.00;;;2.32;100.00
27429;BME280;14881;48.092;11.574;2023-03-01T08:58:59;95725.91;;;2.34;100.00
27429;BME280;14881;48.092;11.574;2023-03-01T09:01:27;95719.50;;;2.35;100.00
27429;BME280;14881;48.092;11.574;2023-03-01T09:03:55;95714.72;;;2.37;100.00
27429;BME280;14881;48.092;11.574;2023-03-01T09:06:24;95720.28;;;2.47;100.00
27429;BME280;14881;48.092;11.574;2023-03-01T09:08:54;95722.63;;;2.43;100.00
27429;BME280;14881;48.092;11.574;2023-03-01T09:11:22;95717.28;;;2.55;100.00
27429;BME280;14881;48.092;11.574;2023-03-01T09:13:50;95720.31;;;2.59;100.00
27429;BME280;14881;48.092;11.574;2023-03-01T09:16:19;95711.63;;;2.80;100.00
27429;BME280;14881;48.092;11.574;2023-03-01T09:18:49;95717.34;;;2.84;100.00
27429;BME280;14881;48.092;11.574;2023-03-01T09:21:18;95717.22;;;2.78;100.00
27429;BME280;14881;48.092;11.574;2023-03-01T09:24:06;95709.63;;;2.99;100.00
27429;BME280;14881;48.092;11.574;2023-03-01T09:26:34;95702.63;;;2.98;100.00
27429;BME280;14881;48.092;11.574;2023-03-01T09:29:02;95707.41;;;3.07;100.00
27429;BME280;14881;48.092;11.574;2023-03-01T09:31:29;95708.06;;;3.14;100.00
27429;BME280;14881;48.092;11.574;2023-03-01T09:33:57;95701.44;;;3.05;100.00
27429;BME280;14881;48.092;11.574;2023-03-01T09:36:27;95704.63;;;2.91;100.00
27429;BME280;14881;48.092;11.574;2023-03-01T09:38:56;95704.59;;;3.02;100.00
27429;BME280;14881;48.092;11.574;2023-03-01T09:41:44;95699.28;;;2.91;100.00
27429;BME280;14881;48.092;11.574;2023-03-01T09:44:24;95703.59;;;2.92;100.00
27429;BME280;14881;48.092;11.574;2023-03-01T09:46:55;95695.38;;;3.10;100.00
27429;BME280;14881;48.092;11.574;2023-03-01T09:49:25;95692.75;;;3.27;100.00
27429;BME280;14881;48.092;11.574;2023-03-01T09:51:59;95688.00;;;3.45;100.00
27429;BME280;14881;48.092;11.574;2023-03-01T09:54:29;95696.66;;;3.64;100.00
27429;BME280;14881;48.092;11.574;2023-03-01T09:57:17;95693.44;;;3.50;100.00
27429;BME280;14881;48.092;11.574;2023-03-01T09:59:57;95691.78;;;3.61;100.00
27429;BME280;14881;48.092;11.574;2023-03-01T10:02:32;95691.03;;;3.66;100.00
27429;BME280;14881;48.092;11.574;2023-03-01T10:05:14;95690.06;;;3.55;100.00
27429;BME280;14881;48.092;11.574;2023-03-01T10:07:53;95687.78;;;3.64;100.00
27429;BME280;14881;48.092;11.574;2023-03-01T10:10:26;95685.78;;;3.71;100.00
27429;BME280;14881;48.092;11.574;2023-03-01T10:13:00;95690.66;;;3.74;100.00
27429;BME280;14881;48.092;11.574;2023-03-01T10:15:34;95689.28;;;3.71;100.00
27429;BME280;14881;48.092;11.574;2023-03-01T10:18:06;95691.47;;;3.74;100.00
27429;BME280;14881;48.092;11.574;2023-03-01T10:20:44;95683.91;;;3.88;100.00
27429;BME280;14881;48.092;11.574;2023-03-01T10:23:14;95682.75;;;3.84;100.00
27429;BME280;14881;48.092;11.574;2023-03-01T10:25:48;95675.03;;;3.88;100.00
27429;BME280;14881;48.092;11.574;2023-03-01T10:28:25;95682.59;;;3.74;100.00
27429;BME280;14881;48.092;11.574;2023-03-01T10:30:57;95681.16;;;4.16;100.00
27429;BME280;14881;48.092;11.574;2023-03-01T10:33:28;95672.50;;;4.48;100.00
27429;BME280;14881;48.092;11.574;2023-03-01T10:35:56;95679.97;;;4.63;100.00
27429;BME280;14881;48.092;11.574;2023-03-01T10:38:24;95684.94;;;4.54;100.00
27429;BME280;14881;48.092;11.574;2023-03-01T10:40:54;95683.00;;;4.66;100.00
27429;BME280;14881;48.092;11.574;2023-03-01T10:43:26;95679.03;;;4.74;100.00
27429;BME280;14881;48.092;11.574;2023-03-01T10:45:54;95670.53;;;5.04;100.00
27429;BME280;14881;48.092;11.574;2023-03-01T10:48:23;95659.38;;;5.39;100.00
27429;BME280;14881;48.092;11.574;2023-03-01T10:51:06;95662.75;;;5.51;100.00
27429;BME280;14881;48.092;11.574;2023-03-01T10:53:36;95652.72;;;5.73;100.00
27429;BME280;14881;48.092;11.574;2023-03-01T10:56:06;95647.34;;;6.42;100.00
27429;BME280;14881;48.092;11.574;2023-03-01T10:58:37;95637.63;;;6.41;100.00
27429;BME280;14881;48.092;11.574;2023-03-01T11:01:23;95635.53;;;7.01;100.00
27429;BME280;14881;48.092;11.574;2023-03-01T11:04:09;95624.06;;;7.41;100.00
27429;BME280;14881;48.092;11.574;2023-03-01T11:06:39;95615.09;;;7.20;100.00
27429;BME280;14881;48.092;11.574;2023-03-01T11:09:15;95604.09;;;7.52;100.00
27429;BME280;14881;48.092;11.574;2023-03-01T11:11:43;95608.16;;;7.59;100.00
27429;BME280;14881;48.092;11.574;2023-03-01T11:14:16;95601.94;;;7.69;100.00
27429;BME280;14881;48.092;11.574;2023-03-01T11:17:04;95595.75;;;7.94;100.00
27429;BME280;14881;48.092;11.574;2023-03-01T11:19:32;95587.38;;;7.90;100.00
27429;BME280;14881;48.092;11.574;2023-03-01T11:22:03;95586.81;;;8.34;99.77
27429;BME280;14881;48.092;11.574;2023-03-01T11:24:40;95580.31;;;8.04;96.58
27429;BME280;14881;48.092;11.574;2023-03-01T11:27:17;95583.28;;;7.98;95.22
27429;BME280;14881;48.092;11.574;2023-03-01T11:29:51;95568.66;;;8.34;91.79
27429;BME280;14881;48.092;11.574;2023-03-01T11:32:22;95569.72;;;8.54;92.00
27429;BME280;14881;48.092;11.574;2023-03-01T11:34:57;95569.38;;;8.76;96.13
27429;BME280;14881;48.092;11.574;2023-03-01T11:37:33;95565.97;;;8.34;92.37
27429;BME280;14881;48.092;11.574;2023-03-01T11:40:23;95559.69;;;8.64;90.32
27429;BME280;14881;48.092;11.574;2023-03-01T11:43:01;95558.31;;;8.62;93.64
27429;BME280;14881;48.092;11.574;2023-03-01T11:45:39;95550.97;;;8.72;90.38
27429;BME280;14881;48.092;11.574;2023-03-01T11:48:23;95553.38;;;8.79;91.35
27429;BME280;14881;48.092;11.574;2023-03-01T11:51:05;95544.03;;;9.05;92.72
27429;BME280;14881;48.092;11.574;2023-03-01T11:53:50;95536.78;;;8.96;88.67
27429;BME280;14881;48.092;11.574;2023-03-01T11:56:29;95539.38;;;8.52;89.72
27429;BME280;14881;48.092;11.574;2023-03-01T11:59:20;95548.41;;;7.91;93.40
27429;BME280;14881;48.092;11.574;2023-03-01T12:02:08;95550.53;;;8.15;97.44
27429;BME280;14881;48.092;11.574;2023-03-01T12:05:11;95533.97;;;8.52;95.23
27429;BME280;14881;48.092;11.574;2023-03-01T12:07:52;95527.66;;;8.82;92.27
27429;BME280;14881;48.092;11.574;2023-03-01T12:10:23;95528.59;;;9.06;89.92
27429;BME280;14881;48.092;11.574;2023-03-01T12:13:17;95520.00;;;8.94;88.88
27429;BME280;14881;48.092;11.574;2023-03-01T12:16:07;95511.69;;;8.70;87.57
27429;BME280;14881;48.092;11.574;2023-03-01T12:18:57;95520.09;;;9.23;91.61
27429;BME280;14881;48.092;11.574;2023-03-01T12:21:39;95516.88;;;9.60;85.17
27429;BME280;14881;48.092;11.574;2023-03-01T12:24:28;95510.16;;;9.13;79.60
27429;BME280;14881;48.092;11.574;2023-03-01T12:27:16;95499.66;;;9.74;84.17
27429;BME280;14881;48.092;11.574;2023-03-01T12:29:51;95496.75;;;9.66;82.63
27429;BME280;14881;48.092;11.574;2023-03-01T12:32:30;95497.16;;;9.83;83.13
27429;BME280;14881;48.092;11.574;2023-03-01T12:35:16;95502.25;;;9.56;85.41
27429;BME280;14881;48.092;11.574;2023-03-01T12:37:54;95495.41;;;9.29;85.58
27429;BME280;14881;48.092;11.574;2023-03-01T12:40:43;95480.63;;;9.46;84.01
27429;BME280;14881;48.092;11.574;2023-03-01T12:43:26;95485.69;;;9.18;82.97
27429;BME280;14881;48.092;11.574;2023-03-01T12:46:04;95487.75;;;8.97;82.74
27429;BME280;14881;48.092;11.574;2023-03-01T12:48:41;95494.50;;;9.39;83.77
27429;BME280;14881;48.092;11.574;2023-03-01T12:51:14;95491.34;;;9.95;84.99
27429;BME280;14881;48.092;11.574;2023-03-01T12:53:46;95490.78;;;9.98;83.56
27429;BME280;14881;48.092;11.574;2023-03-01T12:56:17;95481.00;;;9.68;82.31
27429;BME280;14881;48.092;11.574;2023-03-01T12:58:54;95488.06;;;9.98;84.41
27429;BME280;14881;48.092;11.574;2023-03-01T13:01:32;95484.50;;;10.02;86.00
27429;BME280;14881;48.092;11.574;2023-03-01T13:04:19;95477.28;;;10.17;84.44
27429;BME280;14881;48.092;11.574;2023-03-01T13:07:00;95467.47;;;9.92;80.01
27429;BME280;14881;48.092;11.574;2023-03-01T13:09:34;95471.69;;;10.37;83.76
27429;BME280;14881;48.092;11.574;2023-03-01T13:12:04;;;;10.33;
27429;BME280;14881;48.092;11.574;2023-03-01T13:14:54;95470.56;;;10.09;85.53